Applegate, Oregon
Current Conditions -  °F | °C
As of 6:53 PM on Tuesday 25 Nov 2014 (Local Time) from KMFR Reporting Station
Scattered Clouds Scattered Clouds  
Wind Chill: 50°   Ceiling: Unl
Heat Index: 50°   Visibility: 10mi
Dew Point: 46°   Wind: 5mph
Humidity: 86%   Direction: 180°S
Pressure: 30.4"   Gusts: NA
Location:  42.1499°N, 123.043°W
Report Text: KMFR 260253Z 18004KT 10SM FEW050 SCT080 10/08 A3040 RMK AO2 SLP297 T01000078 56003
Loading
Personal Weather Stations






























Interactive Weather Map New forecast layout! Learn more

10-Day Weather Forecast

Advertisements
Track Severe Weather on mobile